Time;durP1;ratioP1;P1;durP2;ratioP2;P2;SDS_P1;SDS_P2;PMS_P1;PMS_P2;Temp;Humidity;BMP_temperature;BMP_pressure;BME280_temperature;BME280_humidity;BME280_pressure;Samples;Min_cycle;Max_cycle;Signal;HPM_P1;HPM_P2
2023/04/02 00:00:09;;;;;;;;;;;9.00;99.90;;;;;;5045399;28;19916;-74
2023/04/02 05:01:39;;;;;;;;;;;9.00;99.90;;;;;;6004167;23;19920;-74
2023/04/02 05:04:11;;;;;;;;;;;9.00;99.90;;;;;;4985215;28;19917;-73
2023/04/02 05:06:43;;;;;;;;;;;9.00;99.90;;;;;;4985564;28;19925;-76
2023/04/02 05:09:23;;;;;;;;;;;9.00;99.90;;;;;;4984119;28;19917;-73
2023/04/02 05:11:56;;;;;;;;;;;9.00;99.90;;;;;;4974091;28;19910;-75
2023/04/02 05:14:30;;;;;;;;;;;9.00;99.90;;;;;;4985052;28;19914;-75
2023/04/02 05:16:59;;;;;;;;;;;9.00;99.90;;;;;;4984568;28;20187;-74
2023/04/02 05:19:35;;;;;;;;;;;9.00;99.90;;;;;;4983854;28;19957;-75
2023/04/02 05:22:12;;;;;;;;;;;9.00;99.90;;;;;;4984260;28;20139;-74
2023/04/02 05:24:50;;;;;;;;;;;9.00;99.90;;;;;;5000739;28;19946;-74
2023/04/02 05:27:23;;;;;;;;;;;9.00;99.90;;;;;;4984598;28;19918;-71
2023/04/02 05:29:52;;;;;;;;;;;9.10;99.90;;;;;;4984029;28;19910;-73
2023/04/02 05:32:22;;;;;;;;;;;9.00;99.90;;;;;;4983855;28;19912;-74
2023/04/02 05:34:51;;;;;;;;;;;9.10;99.90;;;;;;4967923;28;19917;-73
2023/04/02 05:37:20;;;;;;;;;;;9.10;99.90;;;;;;4981574;28;19964;-73
2023/04/02 05:39:50;;;;;;;;;;;9.10;99.90;;;;;;4982032;28;19910;-73
2023/04/02 05:42:21;;;;;;;;;;;9.10;99.90;;;;;;4982211;28;19916;-74
2023/04/02 05:45:11;;;;;;;;;;;9.10;99.90;;;;;;4976345;28;20184;-75
2023/04/02 05:47:39;;;;;;;;;;;9.20;99.90;;;;;;4977169;28;19930;-72
2023/04/02 05:50:08;;;;;;;;;;;9.20;99.90;;;;;;4979359;28;20108;-72
2023/04/02 05:52:44;;;;;;;;;;;9.20;99.90;;;;;;4982255;28;19922;-72
2023/04/02 05:55:11;;;;;;;;;;;9.20;99.90;;;;;;4983676;28;19917;-74
2023/04/02 05:57:40;;;;;;;;;;;9.20;99.90;;;;;;4981620;28;19910;-74
2023/04/02 06:00:12;;;;;;;;;;;9.20;99.90;;;;;;4982495;28;19910;-77
2023/04/02 06:02:41;;;;;;;;;;;9.30;99.90;;;;;;4972721;28;19925;-72
2023/04/02 06:05:17;;;;;;;;;;;9.30;99.90;;;;;;4964244;29;19917;-75
2023/04/02 06:07:46;;;;;;;;;;;9.40;99.90;;;;;;4963650;28;20137;-71
2023/04/02 06:10:22;;;;;;;;;;;9.40;99.90;;;;;;4963897;29;19906;-73
2023/04/02 06:12:48;;;;;;;;;;;9.40;99.90;;;;;;4963297;28;20196;-74
2023/04/02 06:15:18;;;;;;;;;;;9.50;99.90;;;;;;4956178;29;19976;-73
2023/04/02 06:17:57;;;;;;;;;;;9.40;99.90;;;;;;4963478;29;19911;-73
2023/04/02 06:20:24;;;;;;;;;;;9.50;99.90;;;;;;4962576;29;19938;-73
2023/04/02 06:22:57;;;;;;;;;;;9.50;99.90;;;;;;4963438;28;19919;-73
2023/04/02 06:25:29;;;;;;;;;;;9.50;99.90;;;;;;4960916;28;19966;-74
2023/04/02 06:27:57;;;;;;;;;;;9.60;99.90;;;;;;4962319;28;19965;-73
2023/04/02 06:30:31;;;;;;;;;;;9.60;99.90;;;;;;4964404;28;19911;-75
2023/04/02 06:32:57;;;;;;;;;;;9.60;99.90;;;;;;4962192;28;19918;-74
2023/04/02 06:35:24;;;;;;;;;;;9.60;99.90;;;;;;4963592;28;19910;-70
2023/04/02 06:37:58;;;;;;;;;;;9.60;99.90;;;;;;4963131;28;19911;-71
2023/04/02 06:40:32;;;;;;;;;;;9.70;99.90;;;;;;4963297;29;19921;-73
2023/04/02 06:43:14;;;;;;;;;;;9.70;99.90;;;;;;4963186;28;19921;-76
2023/04/02 06:46:10;;;;;;;;;;;9.80;99.90;;;;;;4959056;28;19941;-76
2023/04/02 06:48:51;;;;;;;;;;;9.80;99.90;;;;;;4961076;29;19911;-77
2023/04/02 06:51:25;;;;;;;;;;;9.80;99.90;;;;;;4962352;29;20193;-76
2023/04/02 06:53:52;;;;;;;;;;;9.90;99.90;;;;;;4961893;28;19917;-75
2023/04/02 06:56:18;;;;;;;;;;;10.00;99.90;;;;;;4952874;29;20148;-77
2023/04/02 06:58:44;;;;;;;;;;;10.00;99.90;;;;;;4965117;28;19906;-77
2023/04/02 07:01:16;;;;;;;;;;;10.10;99.90;;;;;;4963366;28;19911;-76
2023/04/02 07:03:42;;;;;;;;;;;10.10;99.90;;;;;;4961109;29;19921;-75
2023/04/02 07:06:15;;;;;;;;;;;10.30;99.90;;;;;;4962953;29;19955;-73
2023/04/02 07:08:43;;;;;;;;;;;10.40;99.90;;;;;;4962541;29;20305;-71
2023/04/02 07:11:12;;;;;;;;;;;10.50;99.90;;;;;;4963254;29;19910;-76
2023/04/02 07:13:38;;;;;;;;;;;10.50;99.90;;;;;;4962531;29;19918;-73
2023/04/02 07:16:04;;;;;;;;;;;10.60;99.90;;;;;;4963358;29;19959;-73
2023/04/02 07:18:31;;;;;;;;;;;10.60;99.90;;;;;;4962676;29;19910;-72
2023/04/02 07:20:59;;;;;;;;;;;10.60;99.90;;;;;;4962972;29;19918;-71
2023/04/02 07:23:26;;;;;;;;;;;10.70;99.90;;;;;;4962367;29;19942;-72
2023/04/02 07:25:52;;;;;;;;;;;10.70;99.90;;;;;;4964091;28;19966;-73
2023/04/02 07:28:18;;;;;;;;;;;10.50;99.90;;;;;;4963938;28;20204;-73
2023/04/02 07:30:44;;;;;;;;;;;10.60;99.90;;;;;;4963836;28;19970;-73
2023/04/02 07:33:15;;;;;;;;;;;10.60;99.90;;;;;;4963736;28;19942;-73
2023/04/02 07:35:41;;;;;;;;;;;10.70;99.90;;;;;;4975769;28;19910;-73
2023/04/02 07:38:09;;;;;;;;;;;10.70;99.90;;;;;;4963384;28;19989;-75
2023/04/02 07:40:34;;;;;;;;;;;10.80;99.90;;;;;;4963709;28;19910;-74
2023/04/02 07:43:00;;;;;;;;;;;10.90;99.90;;;;;;4963905;29;19906;-73
2023/04/02 07:45:26;;;;;;;;;;;10.90;99.90;;;;;;4963351;29;20144;-72
2023/04/02 07:47:52;;;;;;;;;;;11.00;99.90;;;;;;4963527;29;20246;-72
2023/04/02 07:50:18;;;;;;;;;;;11.10;99.90;;;;;;4963810;28;19958;-72
2023/04/02 07:52:44;;;;;;;;;;;11.10;99.90;;;;;;4963752;28;19945;-73
2023/04/02 07:55:11;;;;;;;;;;;11.10;99.90;;;;;;4963695;28;19918;-74
2023/04/02 07:57:47;;;;;;;;;;;11.10;99.90;;;;;;4962924;29;20057;-72
2023/04/02 08:00:13;;;;;;;;;;;11.10;99.90;;;;;;4963803;29;19917;-74
2023/04/02 08:02:39;;;;;;;;;;;11.20;99.90;;;;;;4961574;29;19918;-73
2023/04/02 08:05:05;;;;;;;;;;;11.20;99.90;;;;;;4955696;29;19950;-70
2023/04/02 08:07:31;;;;;;;;;;;11.30;99.90;;;;;;4962196;29;20077;-71
2023/04/02 08:09:56;;;;;;;;;;;11.30;99.90;;;;;;4964951;28;19986;-71
2023/04/02 08:12:22;;;;;;;;;;;11.30;99.90;;;;;;4965464;29;20021;-73
2023/04/02 08:14:47;;;;;;;;;;;11.40;99.90;;;;;;4967005;29;19914;-71
2023/04/02 08:17:36;;;;;;;2.70;0.68;;;11.50;99.90;;;;;;5135817;27;20156;-73
2023/04/02 08:20:06;;;;;;;2.90;0.80;;;11.50;99.90;;;;;;5140428;28;20035;-70
2023/04/02 08:22:32;;;;;;;2.22;0.75;;;11.60;99.90;;;;;;5140505;28;20028;-70
2023/04/02 08:24:58;;;;;;;2.20;0.70;;;11.70;99.90;;;;;;5140305;28;20034;-70
2023/04/02 08:27:24;;;;;;;2.85;0.60;;;11.60;99.90;;;;;;5139867;28;20051;-71
2023/04/02 08:29:50;;;;;;;2.65;0.70;;;11.60;99.90;;;;;;5140245;28;20027;-72
2023/04/02 08:32:16;;;;;;;2.33;0.65;;;11.60;99.90;;;;;;5136362;28;20325;-71
2023/04/02 08:34:42;;;;;;;1.55;0.60;;;11.70;99.90;;;;;;5125490;28;20027;-72
2023/04/02 08:37:12;;;;;;;1.00;0.38;;;11.60;99.90;;;;;;5125158;28;20111;-73
2023/04/02 08:39:38;;;;;;;2.15;0.70;;;11.70;99.90;;;;;;5129204;28;20141;-72
2023/04/02 08:42:24;;;;;;;1.38;0.60;;;11.60;99.90;;;;;;5139079;27;20027;-73
2023/04/02 08:45:14;;;;;;;1.85;0.47;;;11.70;99.90;;;;;;5139359;28;20178;-72
2023/04/02 08:47:43;;;;;;;1.77;0.50;;;11.80;99.90;;;;;;5138852;28;20300;-72
2023/04/02 08:50:30;;;;;;;;;;;11.80;99.90;;;;;;5139627;28;20163;-72
2023/04/02 08:52:57;;;;;;;3.53;0.50;;;11.90;99.90;;;;;;5131021;28;19908;-71
2023/04/02 08:55:38;;;;;;;1.92;0.50;;;11.80;99.90;;;;;;5135788;28;20325;-75
2023/04/02 08:58:32;;;;;;;2.72;0.73;;;11.80;99.90;;;;;;5113295;28;20024;-71
2023/04/02 09:01:00;;;;;;;3.53;1.38;;;11.80;99.90;;;;;;5117639;28;20099;-71
2023/04/02 09:03:43;;;;;;;2.25;0.90;;;12.00;99.90;;;;;;5118338;28;20313;-70
2023/04/02 09:06:13;;;;;;;2.58;0.65;;;12.00;99.90;;;;;;5118801;28;20057;-73
2023/04/02 09:08:42;;;;;;;1.45;0.40;;;12.10;99.90;;;;;;5118116;28;20205;-71
2023/04/02 09:11:11;;;;;;;;;;;12.10;99.90;;;;;;5119068;28;20027;-72
2023/04/02 09:13:45;;;;;;;1.33;0.30;;;12.40;99.90;;;;;;5118168;28;19904;-72
2023/04/02 09:16:16;;;;;;;2.25;0.88;;;12.60;99.90;;;;;;5118272;28;20051;-72
2023/04/02 09:18:44;;;;;;;0.85;0.40;;;12.90;99.90;;;;;;5118316;28;20344;-71
2023/04/02 09:21:36;;;;;;;1.70;0.40;;;13.10;99.90;;;;;;5118823;28;20030;-72
2023/04/02 09:24:03;;;;;;;1.25;0.45;;;13.40;99.90;;;;;;5118684;28;20095;-75
2023/04/02 09:26:32;;;;;;;1.67;0.47;;;13.50;99.90;;;;;;5117117;28;20024;-72
2023/04/02 09:29:07;;;;;;;1.58;0.60;;;13.70;99.90;;;;;;5104709;28;20091;-73
2023/04/02 09:31:47;;;;;;;3.10;0.47;;;14.00;99.80;;;;;;5104386;28;20036;-73
2023/04/02 09:34:29;;;;;;;1.67;0.50;;;13.80;99.40;;;;;;5104807;28;20061;-71
2023/04/02 09:36:55;;;;;;;1.85;0.45;;;13.70;99.50;;;;;;5093834;28;20264;-73
2023/04/02 09:39:25;;;;;;;1.50;0.70;;;13.60;99.20;;;;;;5093378;28;20028;-74
2023/04/02 09:41:52;;;;;;;1.83;0.40;;;13.70;99.60;;;;;;5103741;28;20024;-74
2023/04/02 09:44:26;;;;;;;1.58;0.35;;;13.80;99.40;;;;;;5104800;28;20028;-72
2023/04/02 09:46:58;;;;;;;1.05;0.20;;;13.80;99.20;;;;;;5104412;28;20103;-72
2023/04/02 09:49:35;;;;;;;2.45;0.55;;;13.70;99.00;;;;;;5104710;28;20028;-74
2023/04/02 09:52:16;;;;;;;3.95;1.92;;;13.50;99.30;;;;;;5104589;28;20050;-72
2023/04/02 09:54:42;;;;;;;1.48;0.60;;;13.30;99.50;;;;;;5103709;28;20028;-72
2023/04/02 09:57:23;;;;;;;1.88;0.52;;;13.20;99.70;;;;;;5093984;28;20088;-72
2023/04/02 10:00:12;;;;;;;0.90;0.20;;;12.80;99.70;;;;;;5091182;28;20074;-71
2023/04/02 10:02:39;;;;;;;1.65;0.50;;;12.60;99.90;;;;;;5093901;28;20373;-72
2023/04/02 10:05:14;;;;;;;2.53;0.40;;;12.70;99.90;;;;;;5104312;28;20050;-71
2023/04/02 10:07:42;;;;;;;2.72;0.40;;;12.50;99.90;;;;;;5103891;28;20040;-72
2023/04/02 10:10:30;;;;;;;1.02;0.30;;;12.50;99.90;;;;;;5104124;28;20039;-72
2023/04/02 10:13:17;;;;;;;0.93;0.47;;;12.70;99.90;;;;;;5091745;28;20306;-71
2023/04/02 10:16:11;;;;;;;2.30;0.43;;;12.60;99.90;;;;;;5091316;28;20341;-74
2023/04/02 10:18:47;;;;;;;1.42;0.40;;;12.60;99.90;;;;;;5103164;28;20024;-72
2023/04/02 10:21:17;;;;;;;1.52;0.50;;;12.80;99.90;;;;;;5102631;28;20095;-74
2023/04/02 10:23:43;;;;;;;1.52;0.40;;;13.00;99.90;;;;;;5103264;28;20081;-75
2023/04/02 10:26:21;;;;;;;1.25;0.30;;;13.20;99.80;;;;;;5103789;28;20059;-73
2023/04/02 10:29:15;;;;;;;1.95;0.30;;;13.30;99.30;;;;;;5103369;28;20538;-73
2023/04/02 10:32:05;;;;;;;1.83;0.43;;;13.60;99.70;;;;;;5102089;28;20332;-73
2023/04/02 10:34:44;;;;;;;1.73;0.50;;;13.60;98.70;;;;;;5103302;28;20314;-74
2023/04/02 10:37:43;;;;;;;1.60;0.40;;;13.80;99.10;;;;;;5083333;28;20082;-72
2023/04/02 10:40:11;;;;;;;1.63;0.50;;;14.10;98.10;;;;;;5092950;28;20066;-73
2023/04/02 10:43:00;;;;;;;1.13;0.40;;;14.30;98.10;;;;;;5102928;28;20019;-73
2023/04/02 10:45:40;;;;;;;1.00;0.40;;;14.40;97.90;;;;;;5102299;28;20024;-73
2023/04/02 10:48:30;;;;;;;1.20;0.40;;;14.50;97.20;;;;;;5103231;28;20043;-75
2023/04/02 10:51:30;;;;;;;1.38;0.40;;;14.60;97.00;;;;;;5103574;28;20039;-73
2023/04/02 10:54:29;;;;;;;1.83;0.50;;;14.60;97.10;;;;;;5079909;28;20089;-72
2023/04/02 10:57:02;;;;;;;1.27;0.57;;;14.60;96.70;;;;;;5099240;28;20032;-72
2023/04/02 10:59:33;;;;;;;0.70;0.30;;;14.70;96.70;;;;;;5101475;28;20028;-76
2023/04/02 11:02:02;;;;;;;2.38;0.82;;;14.50;96.60;;;;;;5103265;28;20032;-74
2023/04/02 11:04:40;;;;;;;1.15;0.50;;;14.50;96.50;;;;;;5102939;28;20031;-77
2023/04/02 11:07:12;;;;;;;1.25;0.40;;;14.30;96.40;;;;;;5103207;28;20035;-74
2023/04/02 11:09:42;;;;;;;1.17;0.30;;;14.30;96.70;;;;;;5102749;28;20047;-73
2023/04/02 11:12:20;;;;;;;1.27;0.35;;;14.40;96.60;;;;;;5103021;28;20369;-73
2023/04/02 11:14:46;;;;;;;0.95;0.30;;;14.30;96.90;;;;;;5102676;28;20095;-76
2023/04/02 11:17:15;;;;;;;1.33;0.30;;;14.20;97.20;;;;;;5102402;28;20393;-72
2023/04/02 11:19:41;;;;;;;0.90;0.20;;;14.20;97.40;;;;;;5100993;28;20321;-72
2023/04/02 11:22:22;;;;;;;1.35;0.25;;;14.00;96.90;;;;;;5102663;28;20047;-74
2023/04/02 11:24:56;;;;;;;0.65;0.15;;;14.20;96.60;;;;;;5101073;28;20028;-73
2023/04/02 11:27:35;;;;;;;1.27;0.20;;;14.00;96.50;;;;;;5102821;28;20031;-73
2023/04/02 11:30:14;;;;;;;0.63;0.20;;;14.10;96.70;;;;;;5101637;28;20057;-71
2023/04/02 11:32:44;;;;;;;1.02;0.10;;;14.10;96.30;;;;;;5101062;28;20335;-72
2023/04/02 11:35:31;;;;;;;1.50;0.28;;;14.20;96.10;;;;;;5101509;28;20019;-73
2023/04/02 11:38:20;;;;;;;0.47;0.10;;;14.40;96.00;;;;;;5087902;28;20046;-75
2023/04/02 11:40:53;;;;;;;1.13;0.20;;;14.60;96.30;;;;;;5100105;28;20028;-73
2023/04/02 11:43:31;;;;;;;0.45;0.10;;;14.70;95.20;;;;;;5101248;28;20198;-73
2023/04/02 11:45:59;;;;;;;0.73;0.30;;;14.90;95.10;;;;;;5102141;28;20035;-74
2023/04/02 11:48:28;;;;;;;2.10;0.20;;;14.80;95.40;;;;;;5101388;28;20247;-73
2023/04/02 11:50:54;;;;;;;1.20;0.20;;;14.90;96.00;;;;;;5101376;28;20031;-73
2023/04/02 11:53:22;;;;;;;0.45;0.28;;;15.00;94.80;;;;;;5102435;28;20113;-72
2023/04/02 11:55:57;;;;;;;0.47;0.20;;;15.20;94.80;;;;;;5101643;28;20044;-73
2023/04/02 11:58:48;;;;;;;1.17;0.20;;;15.40;94.60;;;;;;5084214;28;20027;-71
2023/04/02 12:01:28;;;;;;;0.32;0.10;;;15.60;94.10;;;;;;5101710;28;20034;-72
2023/04/02 12:04:22;;;;;;;0.88;0.20;;;15.90;94.30;;;;;;5101992;28;20035;-72
2023/04/02 12:07:16;;;;;;;0.55;0.20;;;16.00;93.10;;;;;;5101751;28;20031;-74
2023/04/02 12:09:59;;;;;;;0.90;0.20;;;16.10;93.20;;;;;;5101274;28;20318;-73
2023/04/02 12:12:35;;;;;;;0.68;0.10;;;16.20;93.10;;;;;;5101950;28;20065;-72
2023/04/02 12:15:01;;;;;;;0.65;0.13;;;16.10;93.30;;;;;;5102200;28;20173;-72
2023/04/02 12:17:28;;;;;;;0.73;0.20;;;16.30;92.10;;;;;;5101634;28;20067;-71
2023/04/02 12:20:00;;;;;;;0.65;0.20;;;16.20;92.70;;;;;;5101644;28;20043;-73
2023/04/02 12:22:31;;;;;;;1.42;0.43;;;16.20;92.20;;;;;;5101259;28;20043;-73
2023/04/02 12:25:20;;;;;;;1.10;0.30;;;16.10;92.30;;;;;;5101369;28;20028;-74
2023/04/02 12:27:46;;;;;;;0.90;0.30;;;16.00;92.40;;;;;;5101539;28;20024;-74
2023/04/02 12:30:13;;;;;;;0.98;0.20;;;15.60;93.50;;;;;;5101802;28;20054;-74
2023/04/02 12:32:39;;;;;;;1.10;0.20;;;15.50;93.10;;;;;;5101384;28;20095;-75
2023/04/02 12:35:07;;;;;;;1.05;0.20;;;15.00;93.00;;;;;;5100782;28;20079;-75
2023/04/02 12:37:33;;;;;;;0.80;0.20;;;14.80;93.60;;;;;;5086782;28;20070;-74
2023/04/02 12:40:14;;;;;;;0.63;0.20;;;14.70;93.90;;;;;;5101247;28;20088;-75
2023/04/02 12:42:40;;;;;;;0.57;0.20;;;14.50;94.50;;;;;;5101211;28;20321;-74
2023/04/02 12:45:20;;;;;;;0.63;0.20;;;14.50;94.50;;;;;;5101776;28;20028;-75
2023/04/02 12:47:47;;;;;;;0.65;0.20;;;14.50;94.20;;;;;;5101321;28;20078;-72
2023/04/02 12:50:14;;;;;;;1.17;0.10;;;14.40;93.90;;;;;;5101657;28;20218;-73
2023/04/02 12:52:48;;;;;;;0.70;0.20;;;14.60;94.20;;;;;;5101015;28;20103;-72
2023/04/02 12:55:18;;;;;;;0.70;0.20;;;14.60;93.50;;;;;;5101188;28;20024;-73
2023/04/02 12:57:47;;;;;;;0.50;0.13;;;14.60;93.40;;;;;;5102246;28;20036;-72
2023/04/02 13:00:23;;;;;;;1.52;0.25;;;14.60;94.20;;;;;;5101238;28;20032;-73
2023/04/02 13:02:51;;;;;;;0.73;0.20;;;14.70;93.50;;;;;;5101837;28;20249;-72
2023/04/02 13:05:41;;;;;;;0.43;0.10;;;14.70;94.10;;;;;;5105226;28;20032;-72
2023/04/02 13:08:26;;;;;;;1.52;0.50;;;14.90;94.40;;;;;;5105251;28;20035;-72
2023/04/02 13:10:58;;;;;;;1.17;0.40;;;14.90;95.40;;;;;;5104893;28;20349;-74
2023/04/02 13:13:31;;;;;;;1.67;0.70;;;14.90;95.70;;;;;;5105158;28;20028;-73
2023/04/02 13:16:25;;;;;;;1.38;0.60;;;14.80;95.90;;;;;;5104121;28;20059;-75
2023/04/02 13:19:07;;;;;;;1.65;0.57;;;14.70;96.10;;;;;;5104859;28;20016;-74
2023/04/02 13:21:33;;;;;;;1.60;0.40;;;14.50;96.60;;;;;;5103838;28;20353;-73
2023/04/02 13:23:58;;;;;;;0.80;0.40;;;14.40;96.70;;;;;;5104633;28;20020;-73
2023/04/02 13:26:26;;;;;;;1.23;0.50;;;14.20;97.10;;;;;;5105028;28;20335;-74
2023/04/02 13:28:57;;;;;;;2.03;0.63;;;14.10;97.50;;;;;;5104393;28;20151;-73
2023/04/02 13:31:23;;;;;;;2.00;0.80;;;14.10;97.80;;;;;;5104573;28;20051;-75
2023/04/02 13:33:49;;;;;;;1.50;0.60;;;14.00;97.70;;;;;;5091822;28;20188;-73
2023/04/02 13:36:15;;;;;;;2.28;0.70;;;14.00;98.00;;;;;;5097237;28;20322;-75
2023/04/02 13:38:41;;;;;;;1.13;0.50;;;13.70;99.10;;;;;;5095527;28;20024;-73
2023/04/02 13:41:25;;;;;;;1.40;0.80;;;13.40;99.90;;;;;;5104474;28;20099;-73
2023/04/02 13:43:53;;;;;;;2.58;0.90;;;13.00;99.90;;;;;;5103807;28;20034;-73
2023/04/02 13:46:21;;;;;;;1.55;0.93;;;12.70;99.90;;;;;;5104493;28;20040;-73
2023/04/02 13:48:49;;;;;;;2.63;1.40;;;12.60;99.90;;;;;;5104208;28;20242;-73
2023/04/02 13:51:18;;;;;;;2.37;1.00;;;12.50;99.90;;;;;;5104192;28;20059;-74
2023/04/02 13:53:48;;;;;;;1.67;0.77;;;12.50;99.90;;;;;;5102892;28;20616;-72
2023/04/02 13:56:14;;;;;;;3.00;0.80;;;12.30;99.90;;;;;;5104579;28;20044;-73
2023/04/02 13:58:39;;;;;;;1.52;0.85;;;12.10;99.90;;;;;;5104390;28;20199;-75
2023/04/02 14:01:05;;;;;;;1.58;0.80;;;12.10;99.90;;;;;;5104207;28;20020;-74
2023/04/02 14:03:31;;;;;;;2.03;0.90;;;12.00;99.90;;;;;;5104549;28;20084;-73
2023/04/02 14:06:11;;;;;;;2.10;0.80;;;12.00;99.90;;;;;;5103980;28;20031;-74
2023/04/02 14:09:00;;;;;;;1.60;0.82;;;11.90;99.90;;;;;;5104599;28;20031;-72
2023/04/02 14:11:55;;;;;;;2.35;1.13;;;11.90;99.90;;;;;;5104637;28;20027;-73
2023/04/02 14:14:23;;;;;;;2.38;0.90;;;11.80;99.90;;;;;;5103810;28;20206;-75
2023/04/02 14:17:04;;;;;;;;;;;11.70;99.90;;;;;;5102583;28;20044;-73
2023/04/02 14:20:01;;;;;;;3.28;1.20;;;11.60;99.90;;;;;;5102562;28;19904;-72
2023/04/02 14:22:52;;;;;;;2.30;1.08;;;11.60;99.90;;;;;;5103942;28;20051;-73
2023/04/02 14:25:40;;;;;;;1.85;0.80;;;11.60;99.90;;;;;;5104027;28;20099;-72
2023/04/02 14:28:37;;;;;;;1.25;0.68;;;11.50;99.90;;;;;;5103672;28;20064;-73
2023/04/02 14:31:14;;;;;;;1.33;0.68;;;11.50;99.90;;;;;;5103329;28;20032;-73
2023/04/02 14:33:55;;;;;;;1.38;0.80;;;11.30;99.90;;;;;;5103868;28;20028;-73
2023/04/02 14:36:34;;;;;;;1.55;0.70;;;11.30;99.90;;;;;;5096410;28;20024;-74
2023/04/02 14:39:27;;;;;;;1.83;0.77;;;11.30;99.90;;;;;;5097566;28;20051;-74
2023/04/02 14:42:05;;;;;;;1.58;0.80;;;11.30;99.90;;;;;;5103199;28;20032;-75
2023/04/02 14:44:38;;;;;;;1.80;1.17;;;11.40;99.90;;;;;;5103740;28;20314;-72
2023/04/02 14:47:30;;;;;;;2.28;0.88;;;11.40;99.90;;;;;;5103037;28;20305;-75
2023/04/02 14:50:01;;;;;;;2.35;1.00;;;11.50;99.90;;;;;;5101738;28;20032;-75
2023/04/02 14:52:32;;;;;;;1.80;0.80;;;11.50;99.90;;;;;;5103233;28;20040;-74
2023/04/02 14:55:02;;;;;;;1.52;0.75;;;11.50;99.90;;;;;;5102817;28;20084;-73
2023/04/02 14:57:37;;;;;;;1.02;0.50;;;11.40;99.90;;;;;;5103214;28;20195;-74
2023/04/02 15:00:23;;;;;;;1.42;0.82;;;11.40;99.90;;;;;;5102899;28;20301;-74
2023/04/02 15:03:15;;;;;;;1.40;0.90;;;11.30;99.90;;;;;;5102702;28;20306;-72
2023/04/02 15:05:44;;;;;;;1.60;0.70;;;11.30;99.90;;;;;;5102096;28;20275;-75
2023/04/02 15:08:12;;;;;;;2.10;0.82;;;11.10;99.90;;;;;;5103157;28;20039;-72
2023/04/02 15:10:54;;;;;;;;;;;11.10;99.90;;;;;;5103719;28;20060;-74
2023/04/02 15:13:25;;;;;;;1.33;0.80;;;11.00;99.90;;;;;;5101644;28;20013;-73
2023/04/02 15:15:55;;;;;;;2.20;0.70;;;10.80;99.90;;;;;;5102011;28;20050;-73
2023/04/02 15:18:21;;;;;;;2.17;0.55;;;10.70;99.90;;;;;;5102469;28;20036;-72
2023/04/02 15:20:59;;;;;;;1.67;0.80;;;10.70;99.90;;;;;;5102023;28;20031;-72
2023/04/02 15:24:15;;;;;;;1.63;0.85;;;10.60;99.90;;;;;;5102739;28;20035;-74
2023/04/02 15:27:33;;;;;;;1.65;0.80;;;10.50;99.90;;;;;;5040036;28;20116;-72
2023/04/02 15:30:07;;;;;;;1.80;0.88;;;10.30;99.90;;;;;;5009800;28;20044;-73
2023/04/02 15:32:33;;;;;;;2.50;0.82;;;10.20;99.90;;;;;;5040296;28;20053;-73
2023/04/02 15:35:08;;;;;;;1.92;1.02;;;10.10;99.90;;;;;;5040183;28;20029;-73
2023/04/02 15:38:09;;;;;;;2.13;0.70;;;10.10;99.90;;;;;;5024871;28;20054;-74
2023/04/02 15:40:54;;;;;;;3.10;1.15;;;10.10;99.90;;;;;;5000736;28;20154;-74
2023/04/02 15:43:30;;;;;;;2.70;1.10;;;10.20;99.90;;;;;;5037391;28;20037;-73
2023/04/02 15:46:14;;;;;;;2.55;1.10;;;10.20;99.90;;;;;;5039776;28;20255;-73
2023/04/02 15:48:46;;;;;;;1.30;0.68;;;10.30;99.90;;;;;;5040276;28;20037;-75
2023/04/02 15:51:28;;;;;;;2.53;0.85;;;10.20;99.90;;;;;;5039750;28;20056;-73
2023/04/02 15:54:30;;;;;;;1.92;0.80;;;10.10;99.90;;;;;;5039522;28;20037;-73
2023/04/02 15:57:17;;;;;;;2.58;0.80;;;9.90;99.90;;;;;;5063319;28;20069;-73
2023/04/02 16:00:00;;;;;;;2.05;0.93;;;9.80;99.90;;;;;;5101914;28;20028;-74
2023/04/02 16:03:01;;;;;;;2.15;1.00;;;9.60;99.90;;;;;;5102223;28;20051;-73
2023/04/02 16:05:47;;;;;;;1.88;0.93;;;9.60;99.90;;;;;;5101930;28;20218;-75
2023/04/02 16:08:24;;;;;;;2.10;0.90;;;9.60;99.90;;;;;;5101939;28;20041;-73
2023/04/02 16:10:50;;;;;;;1.20;0.70;;;9.60;99.90;;;;;;5101602;28;20083;-74
2023/04/02 16:13:33;;;;;;;1.80;1.02;;;9.50;99.90;;;;;;5102063;28;20016;-75
2023/04/02 16:16:23;;;;;;;2.10;1.17;;;9.50;99.90;;;;;;5100047;28;20342;-74
2023/04/02 16:19:00;;;;;;;2.00;1.10;;;9.40;99.90;;;;;;5101484;28;20072;-74
2023/04/02 16:21:37;;;;;;;2.70;1.23;;;9.40;99.90;;;;;;5101871;28;20091;-75
2023/04/02 16:24:10;;;;;;;3.35;1.67;;;9.40;99.90;;;;;;5101452;28;20016;-75
2023/04/02 16:26:57;;;;;;;3.17;1.30;;;9.40;99.90;;;;;;5101760;28;20317;-74
2023/04/02 16:29:42;;;;;;;2.83;1.50;;;9.40;99.90;;;;;;5102208;28;20051;-75
2023/04/02 16:32:45;;;;;;;3.28;1.55;;;9.40;99.90;;;;;;5101802;28;20297;-74
2023/04/02 16:35:24;;;;;;;2.38;1.20;;;9.40;99.90;;;;;;5101477;28;20031;-74
2023/04/02 16:38:28;;;;;;;2.22;1.10;;;9.40;99.90;;;;;;5086539;28;20032;-73
2023/04/02 16:41:31;;;;;;;1.73;1.00;;;9.30;99.90;;;;;;5097992;28;20088;-77
2023/04/02 16:44:20;;;;;;;1.70;1.00;;;9.30;99.90;;;;;;5088455;28;20023;-75
2023/04/02 16:47:12;;;;;;;1.75;1.08;;;9.20;99.90;;;;;;5098602;28;20067;-74
2023/04/02 16:49:47;;;;;;;1.88;0.98;;;9.20;99.90;;;;;;5095994;28;20027;-74
2023/04/02 16:52:32;;;;;;;1.92;1.00;;;9.20;99.90;;;;;;5087057;28;20028;-75
2023/04/02 16:55:24;;;;;;;2.75;1.10;;;9.20;99.90;;;;;;5093255;28;20028;-73
2023/04/02 16:58:08;;;;;;;1.98;1.20;;;9.20;99.90;;;;;;5099907;28;20024;-73
2023/04/02 17:00:58;;;;;;;1.80;1.30;;;9.10;99.90;;;;;;5077423;28;20091;-74
2023/04/02 17:03:51;;;;;;;2.08;1.20;;;9.10;99.90;;;;;;5079129;28;20047;-74
2023/04/02 17:06:41;;;;;;;1.58;0.90;;;9.00;99.90;;;;;;5086591;28;20028;-73
2023/04/02 17:09:13;;;;;;;2.20;1.20;;;9.00;99.90;;;;;;5085608;28;20293;-75
2023/04/02 17:11:48;;;;;;;2.08;1.40;;;8.90;99.90;;;;;;5100447;28;20039;-73
2023/04/02 17:14:23;;;;;;;2.08;1.08;;;8.90;99.90;;;;;;5094867;28;20088;-75
2023/04/02 17:16:57;;;;;;;2.15;1.20;;;8.90;99.90;;;;;;5105062;28;20052;-73
2023/04/02 17:19:25;;;;;;;3.40;1.50;;;8.70;99.90;;;;;;5101206;28;20103;-74
2023/04/02 17:21:56;;;;;;;4.88;1.40;;;8.70;99.90;;;;;;5095193;28;20024;-75
2023/04/02 17:24:50;;;;;;;4.53;1.70;;;8.70;99.90;;;;;;5099188;28;20032;-75
2023/04/02 17:27:25;;;;;;;5.47;1.70;;;8.60;99.90;;;;;;5074691;28;20326;-73
2023/04/02 17:29:56;;;;;;;4.47;1.85;;;8.60;99.90;;;;;;5104459;28;20310;-72
2023/04/02 17:32:28;;;;;;;6.93;2.08;;;8.60;99.90;;;;;;5105098;28;20191;-74
2023/04/02 17:34:56;;;;;;;4.55;1.75;;;8.50;99.90;;;;;;5101745;28;20033;-75
2023/04/02 17:37:26;;;;;;;2.78;1.30;;;8.50;99.90;;;;;;5092668;28;20032;-75
2023/04/02 17:40:26;;;;;;;4.00;1.20;;;8.50;99.90;;;;;;5097090;28;20039;-74
2023/04/02 17:43:09;;;;;;;1.95;1.20;;;8.50;99.90;;;;;;5105144;28;20023;-74
2023/04/02 17:45:43;;;;;;;3.25;1.88;;;8.50;99.90;;;;;;5105094;28;20024;-73
2023/04/02 17:48:30;;;;;;;3.28;1.45;;;8.40;99.90;;;;;;5104217;28;20105;-74
2023/04/02 17:51:03;;;;;;;2.60;1.83;;;8.30;99.90;;;;;;5104147;28;20042;-73
2023/04/02 17:54:02;;;;;;;3.80;2.03;;;8.20;99.90;;;;;;5104545;28;20055;-75
2023/04/02 17:56:46;;;;;;;4.65;1.90;;;8.10;99.90;;;;;;5104599;28;20036;-74
2023/04/02 17:59:50;;;;;;;3.22;1.92;;;8.00;99.90;;;;;;5104180;28;20020;-74
2023/04/02 18:02:28;;;;;;;2.60;1.60;;;8.00;99.90;;;;;;5102973;28;20050;-75
2023/04/02 18:05:15;;;;;;;2.85;1.95;;;7.90;99.90;;;;;;5091061;28;20246;-74
2023/04/02 18:07:53;;;;;;;2.88;2.10;;;7.90;99.90;;;;;;5104459;28;20321;-74
2023/04/02 18:10:42;;;;;;;2.95;1.90;;;7.90;99.90;;;;;;5103707;28;20032;-73
2023/04/02 18:13:29;;;;;;;2.80;1.80;;;7.80;99.90;;;;;;5095999;28;20034;-72
2023/04/02 18:16:13;;;;;;;3.13;1.92;;;7.80;99.90;;;;;;5103948;28;20107;-75
2023/04/02 18:19:05;;;;;;;6.07;2.10;;;7.70;99.90;;;;;;5104275;28;20050;-74
2023/04/02 18:21:30;;;;;;;2.90;2.05;;;7.70;99.90;;;;;;5104271;28;20032;-75
2023/04/02 18:24:17;;;;;;;4.03;2.22;;;7.70;99.90;;;;;;5103766;28;20026;-73
2023/04/02 18:26:57;;;;;;;3.38;2.05;;;7.50;99.90;;;;;;5104321;28;20040;-74
2023/04/02 18:29:41;;;;;;;5.05;2.42;;;7.50;99.90;;;;;;5104103;28;20027;-73
2023/04/02 18:32:28;;;;;;;3.58;2.40;;;7.60;99.90;;;;;;5103626;28;20305;-75
2023/04/02 18:35:18;;;;;;;4.23;2.50;;;7.50;99.90;;;;;;5102592;28;20032;-74
2023/04/02 18:38:14;;;;;;;4.47;2.50;;;7.50;99.90;;;;;;5101722;28;20111;-73
2023/04/02 18:40:54;;;;;;;5.43;2.72;;;7.40;99.90;;;;;;5089091;28;20032;-74
2023/04/02 18:43:29;;;;;;;3.78;2.40;;;7.40;99.90;;;;;;5103044;28;20035;-75
2023/04/02 18:46:21;;;;;;;4.13;2.38;;;7.20;99.90;;;;;;5102555;28;20080;-72
2023/04/02 18:48:57;;;;;;;5.45;2.65;;;7.10;99.90;;;;;;5103789;28;20269;-72
2023/04/02 18:51:27;;;;;;;5.32;2.60;;;7.10;99.90;;;;;;5103887;28;20069;-75
2023/04/02 18:54:08;;;;;;;4.55;2.70;;;7.10;99.90;;;;;;5102553;28;20032;-73
2023/04/02 18:56:37;;;;;;;4.28;2.83;;;7.00;99.90;;;;;;5103287;28;20257;-73
2023/04/02 18:59:31;;;;;;;5.03;2.60;;;7.00;99.90;;;;;;5102030;28;20089;-77